Manistique, Michigan
Current Conditions -  °F | °C
As of 6:14 AM on Saturday 25 Oct 2014 (Local Time) from KISQ Reporting Station
Clear Clear  
Wind Chill: 50°   Ceiling: Unl
Heat Index: 50°   Visibility: 10mi
Dew Point: 49°   Wind: 8mph
Humidity: 96%   Direction: 280°W
Pressure: 29.68"   Gusts: NA
Location:  45.96°N, 86.25°W
Report Text: KISQ 251014Z AUTO 28007KT 10SM CLR 10/10 A2968 RMK AO2 T01010095
Loading
Personal Weather Stations






























Interactive Weather Map New forecast layout! Learn more

10-Day Weather Forecast

Advertisements
Track Severe Weather on mobile